Time;durP1;ratioP1;P1;durP2;ratioP2;P2;SDS_P1;SDS_P2;PMS_P1;PMS_P2;Temp;Humidity;BMP_temperature;BMP_pressure;BME280_temperature;BME280_humidity;BME280_pressure;Samples;Min_cycle;Max_cycle;Signal;HPM_P1;HPM_P2
2021/08/23 00:02:28;;;;;;;0.00;0.00;;;;;;;;;;10289752;28;20535;-73
2021/08/23 00:07:31;;;;;;;0.00;0.00;;;;;;;;;;10288607;28;20067;-72
2021/08/23 00:12:35;;;;;;;0.00;0.00;;;;;;;;;;10293170;28;20520;-72
2021/08/23 00:17:38;;;;;;;0.00;0.00;;;;;;;;;;10290928;28;20480;-72
2021/08/23 00:22:48;;;;;;;0.00;0.00;;;;;;;;;;10288493;28;20134;-72
2021/08/23 00:27:52;;;;;;;0.03;0.03;;;;;;;;;;10291115;28;20064;-72
2021/08/23 00:32:56;;;;;;;0.00;0.00;;;;;;;;;;10268824;28;20483;-71
2021/08/23 00:37:59;;;;;;;0.00;0.00;;;;;;;;;;10296364;28;20043;-72
2021/08/23 00:43:04;;;;;;;0.00;0.00;;;;;;;;;;10282836;28;20046;-70
2021/08/23 00:48:07;;;;;;;0.00;0.00;;;;;;;;;;10289017;28;20035;-70
2021/08/23 00:53:10;;;;;;;0.00;0.00;;;;;;;;;;10287179;28;20412;-71
2021/08/23 00:58:14;;;;;;;0.00;0.00;;;;;;;;;;10290309;28;20408;-71
2021/08/23 01:03:20;;;;;;;0.00;0.00;;;;;;;;;;10265798;28;20505;-72
2021/08/23 01:08:30;;;;;;;0.00;0.00;;;;;;;;;;10272442;28;20086;-69
2021/08/23 01:13:35;;;;;;;0.00;0.00;;;;;;;;;;10285018;28;20058;-69
2021/08/23 01:18:38;;;;;;;0.00;0.00;;;;;;;;;;10261024;28;20134;-69
2021/08/23 01:23:43;;;;;;;0.00;0.00;;;;;;;;;;10276551;28;20057;-68
2021/08/23 01:28:52;;;;;;;0.00;0.00;;;;;;;;;;10287197;28;20129;-69
2021/08/23 01:33:57;;;;;;;0.00;0.00;;;;;;;;;;10286064;28;20417;-68
2021/08/23 01:39:00;;;;;;;0.00;0.00;;;;;;;;;;10282649;28;20070;-68
2021/08/23 01:44:03;;;;;;;0.00;0.00;;;;;;;;;;10264231;28;20882;-68
2021/08/23 01:49:08;;;;;;;0.00;0.00;;;;;;;;;;10280473;28;20050;-68
2021/08/23 01:54:11;;;;;;;0.00;0.00;;;;;;;;;;10279835;28;20046;-68
2021/08/23 01:59:14;;;;;;;0.00;0.00;;;;;;;;;;10282298;28;20057;-69
2021/08/23 02:04:18;;;;;;;0.00;0.00;;;;;;;;;;10279513;28;20047;-69
2021/08/23 02:09:21;;;;;;;0.00;0.00;;;;;;;;;;10287026;28;20038;-70
2021/08/23 02:14:24;;;;;;;0.00;0.00;;;;;;;;;;10288208;28;20524;-70
2021/08/23 02:19:28;;;;;;;0.00;0.00;;;;;;;;;;10264823;28;20810;-69
2021/08/23 02:24:33;;;;;;;0.00;0.00;;;;;;;;;;10276795;28;20398;-70
2021/08/23 02:29:35;;;;;;;0.00;0.00;;;;;;;;;;10287936;28;20046;-69
2021/08/23 02:34:40;;;;;;;0.00;0.00;;;;;;;;;;10261609;28;20058;-69
2021/08/23 02:39:42;;;;;;;0.00;0.00;;;;;;;;;;10284648;28;20118;-70
2021/08/23 02:44:45;;;;;;;0.00;0.00;;;;;;;;;;10265421;28;20960;-70
2021/08/23 02:49:49;;;;;;;0.00;0.00;;;;;;;;;;10292364;28;20043;-70
2021/08/23 02:54:52;;;;;;;0.10;0.05;;;;;;;;;;10281883;28;20073;-70
2021/08/23 02:59:54;;;;;;;0.00;0.00;;;;;;;;;;10296672;28;20046;-70
2021/08/23 03:04:59;;;;;;;0.00;0.00;;;;;;;;;;10279428;28;20652;-70
2021/08/23 03:10:01;;;;;;;0.00;0.00;;;;;;;;;;10276408;28;20928;-70
2021/08/23 03:15:05;;;;;;;0.00;0.00;;;;;;;;;;10285891;28;20049;-70
2021/08/23 03:20:09;;;;;;;0.00;0.00;;;;;;;;;;10291805;28;20058;-70
2021/08/23 03:25:12;;;;;;;0.00;0.00;;;;;;;;;;10275777;28;20409;-69
2021/08/23 03:30:15;;;;;;;0.00;0.00;;;;;;;;;;10257672;28;20043;-69
2021/08/23 03:35:19;;;;;;;0.00;0.00;;;;;;;;;;10283820;28;20394;-69
2021/08/23 03:40:22;;;;;;;0.00;0.00;;;;;;;;;;10287812;28;20038;-69
2021/08/23 03:45:24;;;;;;;0.00;0.00;;;;;;;;;;10290011;28;20489;-69
2021/08/23 03:50:29;;;;;;;0.00;0.00;;;;;;;;;;10278089;28;20056;-69
2021/08/23 03:55:31;;;;;;;0.00;0.00;;;;;;;;;;10290161;28;20512;-69
2021/08/23 04:00:34;;;;;;;0.00;0.00;;;;;;;;;;10291934;28;20059;-70
2021/08/23 04:05:38;;;;;;;0.00;0.00;;;;;;;;;;10284364;28;20039;-70
2021/08/23 04:10:41;;;;;;;0.00;0.00;;;;;;;;;;10286993;28;20053;-70
2021/08/23 04:15:49;;;;;;;0.00;0.00;;;;;;;;;;10296190;28;20062;-70
2021/08/23 04:20:53;;;;;;;0.52;0.00;;;;;;;;;;10289757;28;20059;-70
2021/08/23 04:25:56;;;;;;;0.00;0.00;;;;;;;;;;10285308;28;20053;-70
2021/08/23 04:30:59;;;;;;;0.00;0.00;;;;;;;;;;10293089;28;20045;-70
2021/08/23 04:36:03;;;;;;;0.00;0.00;;;;;;;;;;10288608;28;20138;-69
2021/08/23 04:41:06;;;;;;;0.00;0.00;;;;;;;;;;10293356;28;20038;-69
2021/08/23 04:46:09;;;;;;;0.00;0.00;;;;;;;;;;10276911;28;20145;-69
2021/08/23 04:51:14;;;;;;;0.00;0.00;;;;;;;;;;10278741;28;20039;-69
2021/08/23 04:56:17;;;;;;;0.00;0.00;;;;;;;;;;10277166;28;20050;-69
2021/08/23 05:01:19;;;;;;;0.00;0.00;;;;;;;;;;10282461;28;20057;-70
2021/08/23 05:06:24;;;;;;;0.00;0.00;;;;;;;;;;10293939;28;20130;-69
2021/08/23 05:11:26;;;;;;;0.00;0.00;;;;;;;;;;10291161;28;20121;-69
2021/08/23 05:16:29;;;;;;;0.00;0.00;;;;;;;;;;10269414;28;20141;-69
2021/08/23 05:21:34;;;;;;;0.00;0.00;;;;;;;;;;10269018;28;20077;-69
2021/08/23 05:26:38;;;;;;;0.00;0.00;;;;;;;;;;10288085;28;20042;-69
2021/08/23 05:31:41;;;;;;;0.00;0.00;;;;;;;;;;10292205;28;20046;-69
2021/08/23 05:36:45;;;;;;;0.00;0.00;;;;;;;;;;10286654;28;20389;-69
2021/08/23 05:41:48;;;;;;;0.00;0.00;;;;;;;;;;10288607;28;20881;-69
2021/08/23 05:46:50;;;;;;;0.00;0.00;;;;;;;;;;10285108;28;20424;-69
2021/08/23 05:51:56;;;;;;;0.00;0.00;;;;;;;;;;10291125;28;20035;-70
2021/08/23 05:57:01;;;;;;;0.00;0.00;;;;;;;;;;10282908;28;20880;-73
2021/08/23 06:02:04;;;;;;;0.10;0.00;;;;;;;;;;10270938;28;20424;-72
2021/08/23 06:07:08;;;;;;;0.00;0.00;;;;;;;;;;10274483;28;20050;-73
2021/08/23 06:12:11;;;;;;;0.03;0.03;;;;;;;;;;10289612;28;20036;-74
2021/08/23 06:17:17;;;;;;;0.08;0.00;;;;;;;;;;10294599;28;20097;-74
2021/08/23 06:22:21;;;;;;;0.00;0.00;;;;;;;;;;10290300;28;20038;-72
2021/08/23 06:27:24;;;;;;;0.13;0.10;;;;;;;;;;10290130;28;20055;-72
2021/08/23 06:32:28;;;;;;;0.00;0.00;;;;;;;;;;10263443;28;20046;-70
2021/08/23 06:37:32;;;;;;;0.00;0.00;;;;;;;;;;10258551;28;20050;-74
2021/08/23 06:42:35;;;;;;;0.00;0.00;;;;;;;;;;10286789;28;20073;-72
2021/08/23 06:47:38;;;;;;;0.00;0.00;;;;;;;;;;10268846;28;20048;-72
2021/08/23 06:52:44;;;;;;;0.00;0.00;;;;;;;;;;10287854;28;20038;-71
2021/08/23 06:57:47;;;;;;;0.00;0.00;;;;;;;;;;10288943;28;20510;-72
2021/08/23 07:02:50;;;;;;;0.00;0.00;;;;;;;;;;10264487;28;20064;-71
2021/08/23 07:07:54;;;;;;;0.00;0.00;;;;;;;;;;10285351;28;20109;-70
2021/08/23 07:12:58;;;;;;;0.00;0.00;;;;;;;;;;10262169;28;20412;-71
2021/08/23 07:18:01;;;;;;;0.00;0.00;;;;;;;;;;10285405;28;20781;-71
2021/08/23 07:23:06;;;;;;;0.00;0.00;;;;;;;;;;10261734;28;20086;-71
2021/08/23 07:28:09;;;;;;;0.00;0.00;;;;;;;;;;10283256;28;20896;-73
2021/08/23 07:33:12;;;;;;;0.00;0.00;;;;;;;;;;10288299;28;20042;-72
2021/08/23 07:38:16;;;;;;;0.00;0.00;;;;;;;;;;10285915;28;20073;-70
2021/08/23 07:43:19;;;;;;;0.00;0.00;;;;;;;;;;10282939;28;20129;-71
2021/08/23 07:48:22;;;;;;;0.03;0.03;;;;;;;;;;10279562;28;20047;-71
2021/08/23 07:53:27;;;;;;;0.00;0.00;;;;;;;;;;10276714;28;20145;-70
2021/08/23 07:58:30;;;;;;;0.00;0.00;;;;;;;;;;10278150;28;20061;-69
2021/08/23 08:03:33;;;;;;;0.00;0.00;;;;;;;;;;10276681;28;20079;-70
2021/08/23 08:08:37;;;;;;;0.00;0.00;;;;;;;;;;10278002;28;20134;-69
2021/08/23 08:13:40;;;;;;;0.00;0.00;;;;;;;;;;10274455;28;20066;-68
2021/08/23 08:18:43;;;;;;;0.00;0.00;;;;;;;;;;10275823;28;20046;-71
2021/08/23 08:23:52;;;;;;;0.00;0.00;;;;;;;;;;10280823;28;20050;-71
2021/08/23 08:28:55;;;;;;;0.00;0.00;;;;;;;;;;10289585;28;20046;-71
2021/08/23 08:33:58;;;;;;;0.00;0.00;;;;;;;;;;10289102;28;20043;-70
2021/08/23 08:39:05;;;;;;;0.00;0.00;;;;;;;;;;10297851;28;20054;-70
2021/08/23 08:44:08;;;;;;;0.00;0.00;;;;;;;;;;10286561;28;21027;-70
2021/08/23 08:49:11;;;;;;;0.00;0.00;;;;;;;;;;10285798;28;20053;-71
2021/08/23 08:54:16;;;;;;;0.00;0.00;;;;;;;;;;10289396;28;20049;-69
2021/08/23 08:59:18;;;;;;;0.00;0.00;;;;;;;;;;10267034;28;20126;-73
2021/08/23 09:04:27;;;;;;;0.00;0.00;;;;;;;;;;10268849;28;20050;-71
2021/08/23 09:09:37;;;;;;;0.00;0.00;;;;;;;;;;10288031;28;20050;-70
2021/08/23 09:14:49;;;;;;;0.00;0.00;;;;;;;;;;10291232;28;20141;-70
2021/08/23 09:19:58;;;;;;;0.00;0.00;;;;;;;;;;10288354;28;20162;-71
2021/08/23 09:25:09;;;;;;;0.00;0.00;;;;;;;;;;10280065;28;20432;-70
2021/08/23 09:30:14;;;;;;;0.00;0.00;;;;;;;;;;10278176;28;20073;-70
2021/08/23 09:35:25;;;;;;;0.00;0.00;;;;;;;;;;10287313;28;20042;-71
2021/08/23 09:40:31;;;;;;;0.00;0.00;;;;;;;;;;10284639;28;20043;-70
2021/08/23 09:45:34;;;;;;;0.00;0.00;;;;;;;;;;10277067;28;20461;-72
2021/08/23 09:50:38;;;;;;;0.00;0.00;;;;;;;;;;10293539;28;20034;-70
2021/08/23 09:55:49;;;;;;;0.00;0.00;;;;;;;;;;10291000;28;20046;-68
2021/08/23 10:00:53;;;;;;;0.00;0.00;;;;;;;;;;10280875;28;20066;-73
2021/08/23 10:05:57;;;;;;;0.00;0.00;;;;;;;;;;10289350;28;20093;-74
2021/08/23 10:11:01;;;;;;;0.00;0.00;;;;;;;;;;10280376;28;20118;-72
2021/08/23 10:16:04;;;;;;;0.00;0.00;;;;;;;;;;10272866;28;20466;-71
2021/08/23 10:21:09;;;;;;;0.00;0.00;;;;;;;;;;10271804;28;20054;-71
2021/08/23 10:26:15;;;;;;;0.00;0.00;;;;;;;;;;10274421;28;20453;-71
2021/08/23 10:31:19;;;;;;;0.00;0.00;;;;;;;;;;10289079;28;20125;-71
2021/08/23 10:36:25;;;;;;;0.00;0.00;;;;;;;;;;10270451;28;20047;-72
2021/08/23 10:41:30;;;;;;;0.00;0.00;;;;;;;;;;10284062;28;20132;-73
2021/08/23 10:46:34;;;;;;;0.00;0.00;;;;;;;;;;10282236;28;20061;-72
2021/08/23 10:51:38;;;;;;;0.00;0.00;;;;;;;;;;10280895;28;20587;-73
2021/08/23 10:56:42;;;;;;;0.03;0.00;;;;;;;;;;10259834;28;20051;-74
2021/08/23 11:01:55;;;;;;;0.00;0.00;;;;;;;;;;10286256;28;20046;-73
2021/08/23 11:06:58;;;;;;;0.17;0.00;;;;;;;;;;10280164;28;20051;-73
2021/08/23 11:12:09;;;;;;;0.00;0.00;;;;;;;;;;10280707;28;20035;-74
2021/08/23 11:17:12;;;;;;;0.00;0.00;;;;;;;;;;10288020;28;20062;-73
2021/08/23 11:22:15;;;;;;;0.00;0.00;;;;;;;;;;10290506;28;20515;-74
2021/08/23 11:27:19;;;;;;;0.00;0.00;;;;;;;;;;10289742;28;20053;-73
2021/08/23 11:32:25;;;;;;;0.00;0.00;;;;;;;;;;10277972;28;20043;-74
2021/08/23 11:37:28;;;;;;;0.00;0.00;;;;;;;;;;10291822;28;20046;-73
2021/08/23 11:42:33;;;;;;;0.00;0.00;;;;;;;;;;10283261;28;20050;-74
2021/08/23 11:47:55;;;;;;;0.00;0.00;;;;;;;;;;10285274;28;20051;-74
2021/08/23 11:53:04;;;;;;;0.00;0.00;;;;;;;;;;10279859;28;20038;-74
2021/08/23 11:58:09;;;;;;;0.00;0.00;;;;;;;;;;10266561;28;20060;-74
2021/08/23 12:03:13;;;;;;;0.00;0.00;;;;;;;;;;10281182;28;20068;-74
2021/08/23 12:08:22;;;;;;;0.00;0.00;;;;;;;;;;10265946;28;21476;-74
2021/08/23 12:13:27;;;;;;;0.00;0.00;;;;;;;;;;10295641;28;20694;-75
2021/08/23 12:18:31;;;;;;;0.00;0.00;;;;;;;;;;10271434;28;20054;-74
2021/08/23 12:23:54;;;;;;;0.00;0.00;;;;;;;;;;10274928;28;20049;-76
2021/08/23 12:28:59;;;;;;;0.08;0.08;;;;;;;;;;10287267;28;20129;-75
2021/08/23 12:34:12;;;;;;;0.00;0.00;;;;;;;;;;10282070;28;20043;-74
2021/08/23 12:39:15;;;;;;;0.00;0.00;;;;;;;;;;10296432;28;20046;-74
2021/08/23 12:44:19;;;;;;;0.00;0.00;;;;;;;;;;10284662;28;20116;-75
2021/08/23 12:49:23;;;;;;;0.00;0.00;;;;;;;;;;10275649;28;20047;-74
2021/08/23 12:54:26;;;;;;;0.00;0.00;;;;;;;;;;10296523;28;20060;-74
2021/08/23 12:59:30;;;;;;;0.00;0.00;;;;;;;;;;10280686;28;20101;-74
2021/08/23 13:04:49;;;;;;;0.00;0.00;;;;;;;;;;10269176;28;20062;-74
2021/08/23 13:09:52;;;;;;;0.00;0.00;;;;;;;;;;10280591;28;20133;-74
2021/08/23 13:14:56;;;;;;;0.00;0.00;;;;;;;;;;10282111;28;20057;-74
2021/08/23 13:19:59;;;;;;;0.00;0.00;;;;;;;;;;10279075;28;20129;-74
2021/08/23 13:25:01;;;;;;;0.00;0.00;;;;;;;;;;10294168;28;20051;-74
2021/08/23 13:30:06;;;;;;;0.00;0.00;;;;;;;;;;10282912;28;20050;-74
2021/08/23 13:35:09;;;;;;;0.00;0.00;;;;;;;;;;10284008;28;20133;-74
2021/08/23 13:40:12;;;;;;;0.00;0.00;;;;;;;;;;10288321;28;20047;-74
2021/08/23 13:45:17;;;;;;;0.00;0.00;;;;;;;;;;10286495;28;20043;-74
2021/08/23 13:50:19;;;;;;;0.00;0.00;;;;;;;;;;10286246;28;20563;-74
2021/08/23 13:55:22;;;;;;;0.00;0.00;;;;;;;;;;10291764;28;20069;-74
2021/08/23 14:00:26;;;;;;;0.00;0.00;;;;;;;;;;10291204;28;20129;-74
2021/08/23 14:05:29;;;;;;;0.00;0.00;;;;;;;;;;10287690;28;20038;-74
2021/08/23 14:10:33;;;;;;;0.00;0.00;;;;;;;;;;10288826;28;20412;-73
2021/08/23 14:15:37;;;;;;;0.00;0.00;;;;;;;;;;10286882;28;20055;-74
2021/08/23 14:20:40;;;;;;;0.00;0.00;;;;;;;;;;10284921;28;20078;-73
2021/08/23 14:25:43;;;;;;;0.00;0.00;;;;;;;;;;10290562;28;20042;-70
2021/08/23 14:30:48;;;;;;;0.00;0.00;;;;;;;;;;10274021;28;20412;-73
2021/08/23 14:35:50;;;;;;;0.00;0.00;;;;;;;;;;10284856;28;20425;-72
2021/08/23 14:40:53;;;;;;;0.00;0.00;;;;;;;;;;10262126;28;20056;-75
2021/08/23 14:45:58;;;;;;;0.00;0.00;;;;;;;;;;10270987;28;20497;-74
2021/08/23 14:51:01;;;;;;;0.00;0.00;;;;;;;;;;10273509;28;20101;-75
2021/08/23 14:56:04;;;;;;;0.00;0.00;;;;;;;;;;10259890;28;20043;-74
2021/08/23 15:01:10;;;;;;;0.00;0.00;;;;;;;;;;10301070;28;20057;-74
2021/08/23 15:06:13;;;;;;;0.00;0.00;;;;;;;;;;10261510;28;20500;-75
2021/08/23 15:11:16;;;;;;;0.00;0.00;;;;;;;;;;10267929;28;20046;-74
2021/08/23 15:16:20;;;;;;;0.00;0.00;;;;;;;;;;10254893;28;20134;-74
2021/08/23 15:21:23;;;;;;;0.00;0.00;;;;;;;;;;10275179;28;20137;-75
2021/08/23 15:26:26;;;;;;;0.00;0.00;;;;;;;;;;10271360;28;20401;-75
2021/08/23 15:31:30;;;;;;;0.00;0.00;;;;;;;;;;10272296;28;20521;-74
2021/08/23 15:36:33;;;;;;;0.00;0.00;;;;;;;;;;10260778;28;20053;-75
2021/08/23 15:41:36;;;;;;;0.00;0.00;;;;;;;;;;10259641;28;20054;-74
2021/08/23 15:46:41;;;;;;;0.00;0.00;;;;;;;;;;10273885;28;20065;-74
2021/08/23 15:51:44;;;;;;;0.00;0.00;;;;;;;;;;10284467;28;20046;-75
2021/08/23 15:56:48;;;;;;;0.00;0.00;;;;;;;;;;10265746;28;20066;-76
2021/08/23 16:01:52;;;;;;;0.00;0.00;;;;;;;;;;10282727;28;20046;-76
2021/08/23 16:06:55;;;;;;;0.00;0.00;;;;;;;;;;10273354;28;20043;-74
2021/08/23 16:11:58;;;;;;;0.00;0.00;;;;;;;;;;10262971;28;20070;-75
2021/08/23 16:17:03;;;;;;;0.00;0.00;;;;;;;;;;10278489;28;20853;-75
2021/08/23 16:22:06;;;;;;;0.10;0.10;;;;;;;;;;10264016;28;20201;-75
2021/08/23 16:27:10;;;;;;;0.05;0.00;;;;;;;;;;10271043;28;20053;-75
2021/08/23 16:32:14;;;;;;;0.00;0.00;;;;;;;;;;10269980;28;20047;-75
2021/08/23 16:37:18;;;;;;;0.00;0.00;;;;;;;;;;10257279;28;20058;-75
2021/08/23 16:42:22;;;;;;;0.00;0.00;;;;;;;;;;10271992;28;20042;-75
2021/08/23 16:47:26;;;;;;;0.00;0.00;;;;;;;;;;10283101;28;20050;-75
2021/08/23 16:52:29;;;;;;;0.00;0.00;;;;;;;;;;10271242;28;20505;-75
2021/08/23 16:57:31;;;;;;;0.00;0.00;;;;;;;;;;10262702;28;20162;-75
2021/08/23 17:02:36;;;;;;;0.00;0.00;;;;;;;;;;10279974;28;20066;-75
2021/08/23 17:07:39;;;;;;;0.00;0.00;;;;;;;;;;10287647;28;20540;-75
2021/08/23 17:12:42;;;;;;;0.00;0.00;;;;;;;;;;10279166;28;20087;-75
2021/08/23 17:17:46;;;;;;;0.00;0.00;;;;;;;;;;10288313;28;20058;-76
2021/08/23 17:22:50;;;;;;;0.00;0.00;;;;;;;;;;10288979;28;20102;-74
2021/08/23 17:27:53;;;;;;;0.00;0.00;;;;;;;;;;10290305;28;20456;-76
2021/08/23 17:32:59;;;;;;;0.00;0.00;;;;;;;;;;10284962;28;20054;-74
2021/08/23 17:38:02;;;;;;;0.00;0.00;;;;;;;;;;10282987;28;20066;-77
2021/08/23 17:43:04;;;;;;;0.00;0.00;;;;;;;;;;10280418;28;20102;-76
2021/08/23 17:48:09;;;;;;;0.00;0.00;;;;;;;;;;10281337;28;20046;-73
2021/08/23 17:53:11;;;;;;;0.00;0.00;;;;;;;;;;10292336;28;20038;-73
2021/08/23 17:58:14;;;;;;;0.00;0.00;;;;;;;;;;10288510;28;20057;-73
2021/08/23 18:03:18;;;;;;;0.00;0.00;;;;;;;;;;10293446;28;20046;-72
2021/08/23 18:08:21;;;;;;;0.00;0.00;;;;;;;;;;10293605;28;20895;-73
2021/08/23 18:13:24;;;;;;;0.00;0.00;;;;;;;;;;10290798;28;20042;-73
2021/08/23 18:18:28;;;;;;;0.00;0.00;;;;;;;;;;10287469;28;20165;-73
2021/08/23 18:23:31;;;;;;;0.00;0.00;;;;;;;;;;10274826;28;20145;-74
2021/08/23 18:28:34;;;;;;;0.00;0.00;;;;;;;;;;10278408;28;20129;-72
2021/08/23 18:33:38;;;;;;;0.00;0.00;;;;;;;;;;10286855;28;20042;-72
2021/08/23 18:38:41;;;;;;;0.00;0.00;;;;;;;;;;10283508;28;20472;-72
2021/08/23 18:43:44;;;;;;;0.00;0.00;;;;;;;;;;10279920;28;20077;-72
2021/08/23 18:48:48;;;;;;;0.00;0.00;;;;;;;;;;10263396;28;20058;-72
2021/08/23 18:53:51;;;;;;;0.00;0.00;;;;;;;;;;10295223;28;20046;-72
2021/08/23 18:58:54;;;;;;;0.10;0.10;;;;;;;;;;10275303;28;20050;-72
2021/08/23 19:03:58;;;;;;;0.00;0.00;;;;;;;;;;10289090;28;20054;-72
2021/08/23 19:09:03;;;;;;;0.00;0.00;;;;;;;;;;10283090;28;20070;-72
2021/08/23 19:14:06;;;;;;;0.00;0.00;;;;;;;;;;10277038;28;20038;-72
2021/08/23 19:19:10;;;;;;;0.00;0.00;;;;;;;;;;10277899;28;20771;-72
2021/08/23 19:24:13;;;;;;;0.00;0.00;;;;;;;;;;10281115;28;20043;-72
2021/08/23 19:29:16;;;;;;;0.00;0.00;;;;;;;;;;10274675;28;20495;-72
2021/08/23 19:34:20;;;;;;;0.00;0.00;;;;;;;;;;10280474;28;20062;-71
2021/08/23 19:39:24;;;;;;;0.00;0.00;;;;;;;;;;10266944;28;20051;-71
2021/08/23 19:44:27;;;;;;;0.00;0.00;;;;;;;;;;10275604;28;20047;-70
2021/08/23 19:49:31;;;;;;;0.00;0.00;;;;;;;;;;10282525;28;20054;-70
2021/08/23 19:54:34;;;;;;;0.00;0.00;;;;;;;;;;10274915;28;20050;-70
2021/08/23 19:59:40;;;;;;;0.00;0.00;;;;;;;;;;10274013;28;20061;-71
2021/08/23 20:04:44;;;;;;;0.00;0.00;;;;;;;;;;10269992;28;20046;-71
2021/08/23 20:09:47;;;;;;;0.00;0.00;;;;;;;;;;10271905;28;20049;-71
2021/08/23 20:14:51;;;;;;;0.00;0.00;;;;;;;;;;10277914;28;20030;-71
2021/08/23 20:19:58;;;;;;;0.00;0.00;;;;;;;;;;10276501;28;20064;-71
2021/08/23 20:25:00;;;;;;;0.00;0.00;;;;;;;;;;10275068;28;20510;-72
2021/08/23 20:30:06;;;;;;;0.00;0.00;;;;;;;;;;10272462;28;20127;-72
2021/08/23 20:35:13;;;;;;;0.08;0.00;;;;;;;;;;10280631;28;20035;-71
2021/08/23 20:40:15;;;;;;;0.00;0.00;;;;;;;;;;10281312;28;20149;-71
2021/08/23 20:45:20;;;;;;;0.00;0.00;;;;;;;;;;10281591;28;20031;-71
2021/08/23 20:50:23;;;;;;;0.00;0.00;;;;;;;;;;10281136;28;20066;-72
2021/08/23 20:55:26;;;;;;;0.05;0.05;;;;;;;;;;10260610;28;20050;-72
2021/08/23 21:00:30;;;;;;;0.10;0.00;;;;;;;;;;10279526;28;20548;-71
2021/08/23 21:05:33;;;;;;;0.00;0.00;;;;;;;;;;10263203;28;20053;-72
2021/08/23 21:10:36;;;;;;;0.00;0.00;;;;;;;;;;10274958;28;20121;-72
2021/08/23 21:15:40;;;;;;;0.00;0.00;;;;;;;;;;10279682;28;20046;-71
2021/08/23 21:20:43;;;;;;;0.00;0.00;;;;;;;;;;10268416;28;20074;-71
2021/08/23 21:25:46;;;;;;;0.00;0.00;;;;;;;;;;10276724;28;20051;-72
2021/08/23 21:30:51;;;;;;;0.00;0.00;;;;;;;;;;10263410;28;20050;-71
2021/08/23 21:35:54;;;;;;;0.00;0.00;;;;;;;;;;10267362;28;20640;-71
2021/08/23 21:40:57;;;;;;;0.00;0.00;;;;;;;;;;10283671;28;20038;-70
2021/08/23 21:46:01;;;;;;;0.03;0.03;;;;;;;;;;10289108;28;20514;-71
2021/08/23 21:51:05;;;;;;;0.00;0.00;;;;;;;;;;10280897;28;20051;-71
2021/08/23 21:56:08;;;;;;;0.00;0.00;;;;;;;;;;10286051;28;20416;-71
2021/08/23 22:01:12;;;;;;;0.03;0.03;;;;;;;;;;10270610;28;20046;-71
2021/08/23 22:06:15;;;;;;;0.00;0.00;;;;;;;;;;10264175;28;20055;-71
2021/08/23 22:11:18;;;;;;;0.05;0.05;;;;;;;;;;10291690;28;20049;-71
2021/08/23 22:16:22;;;;;;;0.08;0.08;;;;;;;;;;10288034;28;20428;-71
2021/08/23 22:21:25;;;;;;;0.00;0.00;;;;;;;;;;10295179;28;20560;-71
2021/08/23 22:26:28;;;;;;;0.00;0.00;;;;;;;;;;10268439;28;20442;-72
2021/08/23 22:31:32;;;;;;;0.00;0.00;;;;;;;;;;10279329;28;20061;-72
2021/08/23 22:36:36;;;;;;;0.00;0.00;;;;;;;;;;10275730;28;20089;-72
2021/08/23 22:41:39;;;;;;;0.00;0.00;;;;;;;;;;10273581;28;20409;-71
2021/08/23 22:46:43;;;;;;;0.03;0.03;;;;;;;;;;10282765;28;20125;-71
2021/08/23 22:51:46;;;;;;;0.00;0.00;;;;;;;;;;10284860;28;20508;-71
2021/08/23 22:56:49;;;;;;;0.00;0.00;;;;;;;;;;10283772;28;20158;-71
2021/08/23 23:02:02;;;;;;;0.00;0.00;;;;;;;;;;8692837;28;10128306;-70
2021/08/23 23:07:05;;;;;;;0.00;0.00;;;;;;;;;;1874590;28;10001155;-71
2021/08/23 23:12:08;;;;;;;0.03;0.03;;;;;;;;;;10238983;28;20213;-71
2021/08/23 23:17:12;;;;;;;0.00;0.00;;;;;;;;;;10204569;28;20051;-71
2021/08/23 23:22:15;;;;;;;0.00;0.00;;;;;;;;;;10237189;28;20058;-71
2021/08/23 23:27:18;;;;;;;0.03;0.03;;;;;;;;;;10238472;28;20074;-72
2021/08/23 23:32:22;;;;;;;0.00;0.00;;;;;;;;;;10240241;28;20110;-72
2021/08/23 23:37:25;;;;;;;0.00;0.00;;;;;;;;;;10239191;28;20043;-72
2021/08/23 23:42:28;;;;;;;0.00;0.00;;;;;;;;;;10238573;28;20054;-70
2021/08/23 23:47:32;;;;;;;0.00;0.00;;;;;;;;;;10262565;28;20169;-71
2021/08/23 23:52:34;;;;;;;0.00;0.00;;;;;;;;;;10258715;28;20050;-71
2021/08/23 23:57:37;;;;;;;0.00;0.00;;;;;;;;;;10290433;28;20752;-71
